Main page
METAR-TAF:

METAR-TAF

Airports :

Singapore, Singapore

Paya Lebar Air Base

latitude: 01-22N, longitude: 103-55E, elevation: 18 m

Current weather observation

The report was made 53 minutes ago, at 21:00 UTC
Wind 2 kt from the North
Temperature 27°C
Humidity 84%
Pressure 1009 hPa
Visibility 10 km or more
Few clouds at a height of 1500 ft
Broken clouds at a height of 30000 ft

METAR: WSAP 282100Z 36002KT 9999 FEW015 BKN300 27/24 Q1009

Time: 05:53 (21:53 UTC)

Forecast

The report was made 4 hours and 53 minutes ago, at 17:00 UTC
Forecast valid from 28 at 18 UTC to 30 at 00 UTC
Wind 7 kt from variable directions
Visibility 10 km or more
Few clouds at a height of 1800 ft, Cumulonimbus.
Scattered clouds at a height of 2000 ft
Temporary
from 29 at 04 UTC to 29 at 08 UTC
Visibility: 3000 m
Few clouds at a height of 1200 ft, Cumulonimbus.
Broken clouds at a height of 1500 ft
thunderstorm, rain

TAF: WSAP 281700Z 2818/3000 VRB07KT 9999 FEW018CB SCT020 TEMPO 2904/2908 3000 TSRA FEW012CB BKN015

Weather observations and forecasts of more than 4000 airports (METAR and TAF reports).

The available stations are represented by yellow and red dots on the map.

Hover mouse over dot to see the name of the station.

Then click to see weather observations and forecasts.

To change the map : click on the green buttons with a black cross to zoom in, on the green button with a dash to zoom out, or on the green arrows for adjacent maps.


METAR-TAF: